createdAt,value
2019-04-07T00:00:56.353Z,0.00
2019-04-07T00:01:57.418Z,0.00
2019-04-07T00:02:57.885Z,0.00
2019-04-07T00:03:58.608Z,0.00
2019-04-07T00:05:10.172Z,0.00
2019-04-07T00:06:05.483Z,0.00
2019-04-07T00:07:05.901Z,0.00
2019-04-07T00:08:06.757Z,0.00
2019-04-07T00:09:07.262Z,0.00
2019-04-07T00:10:08.347Z,0.00
2019-04-07T00:11:09.373Z,0.00
2019-04-07T00:12:10.397Z,0.00
2019-04-07T00:13:11.585Z,0.00
2019-04-07T00:14:12.603Z,0.00
2019-04-07T00:15:13.135Z,0.00
2019-04-07T00:16:13.564Z,0.00
2019-04-07T00:17:14.071Z,0.00
2019-04-07T00:18:14.496Z,0.00
2019-04-07T00:19:15.633Z,0.00
2019-04-07T00:20:16.141Z,0.00
2019-04-07T00:21:16.843Z,0.00
2019-04-07T00:22:17.293Z,0.00
2019-04-07T00:23:18.823Z,0.00
2019-04-07T00:24:19.334Z,0.00
2019-04-07T00:25:19.858Z,0.00
2019-04-07T00:26:20.379Z,0.00
2019-04-07T00:27:21.242Z,0.00
2019-04-07T00:28:21.758Z,0.00
2019-04-07T00:29:38.897Z,0.00
2019-04-07T00:30:40.003Z,0.00
2019-04-07T00:31:40.833Z,0.00
2019-04-07T00:32:41.899Z,0.00
2019-04-07T00:33:42.649Z,0.00
2019-04-07T00:34:43.128Z,0.00
2019-04-07T00:35:43.700Z,0.00
2019-04-07T00:36:44.595Z,0.00
2019-04-07T00:37:46.084Z,0.00
2019-04-07T00:38:47.106Z,0.00
2019-04-07T00:39:47.739Z,0.00
2019-04-07T00:40:48.236Z,0.00
2019-04-07T00:41:48.757Z,0.00
2019-04-07T00:42:49.180Z,0.00
2019-04-07T00:43:49.736Z,0.00
2019-04-07T00:44:50.798Z,0.00
2019-04-07T00:45:51.345Z,0.00
2019-04-07T00:46:51.870Z,0.00
2019-04-07T00:47:52.669Z,0.00
2019-04-07T00:48:53.134Z,0.00
2019-04-07T00:49:54.651Z,0.00
2019-04-07T00:50:55.072Z,0.00
2019-04-07T00:51:55.586Z,0.00
2019-04-07T00:52:56.008Z,0.00
2019-04-07T00:53:57.238Z,0.00
2019-04-07T00:54:57.698Z,0.00
2019-04-07T00:56:00.410Z,0.00
2019-04-07T00:57:01.035Z,0.00
2019-04-07T00:58:01.565Z,0.00
2019-04-07T00:59:02.689Z,0.00
2019-04-07T01:00:03.690Z,0.00
2019-04-07T01:01:05.287Z,0.00
2019-04-07T01:02:05.926Z,0.00
2019-04-07T01:03:06.349Z,0.00
2019-04-07T01:04:06.866Z,0.00
2019-04-07T01:05:07.352Z,0.00
2019-04-07T01:06:07.867Z,0.00
2019-04-07T01:07:08.364Z,0.00
2019-04-07T01:08:09.562Z,0.00
2019-04-07T01:09:10.178Z,0.00
2019-04-07T01:10:10.941Z,0.00
2019-04-07T01:11:11.412Z,0.00
2019-04-07T01:12:12.012Z,0.00
2019-04-07T01:13:12.439Z,0.00
2019-04-07T01:14:13.542Z,0.00
2019-04-07T01:15:14.101Z,0.00
2019-04-07T01:16:14.695Z,0.00
2019-04-07T01:17:15.113Z,0.00
2019-04-07T01:18:15.633Z,0.00
2019-04-07T01:19:16.215Z,0.00
2019-04-07T01:20:19.428Z,0.00
2019-04-07T01:21:20.387Z,0.00
2019-04-07T01:22:20.993Z,0.00
2019-04-07T01:23:21.423Z,0.00
2019-04-07T01:24:22.609Z,0.00
2019-04-07T01:25:23.470Z,0.00
2019-04-07T01:26:25.047Z,0.00
2019-04-07T01:27:25.857Z,0.00
2019-04-07T01:28:26.455Z,0.00
2019-04-07T01:29:26.899Z,0.00
2019-04-07T01:30:27.492Z,0.00
2019-04-07T01:31:27.925Z,0.00
2019-04-07T01:32:29.109Z,0.00
2019-04-07T01:33:29.567Z,0.00
2019-04-07T01:34:31.519Z,0.00
2019-04-07T01:35:32.110Z,0.00
2019-04-07T01:36:32.656Z,0.00
2019-04-07T01:37:33.082Z,0.00
2019-04-07T01:38:33.689Z,0.00
2019-04-07T01:39:34.870Z,0.00
2019-04-07T01:40:35.556Z,0.00
2019-04-07T01:41:35.975Z,0.00
2019-04-07T01:42:36.719Z,0.00
2019-04-07T01:43:37.291Z,0.00
2019-04-07T01:44:37.863Z,0.00
2019-04-07T01:45:38.347Z,0.00
2019-04-07T01:46:38.967Z,0.00
2019-04-07T01:47:39.685Z,0.00
2019-04-07T01:48:40.312Z,0.00
2019-04-07T01:49:41.204Z,0.00
2019-04-07T01:50:43.940Z,0.00
2019-04-07T01:51:44.398Z,0.00
2019-04-07T01:52:44.948Z,0.00
2019-04-07T01:53:45.486Z,0.00
2019-04-07T01:54:46.124Z,0.00
2019-04-07T01:55:46.552Z,0.00
2019-04-07T01:56:47.126Z,0.00
2019-04-07T01:57:47.716Z,0.00
2019-04-07T01:58:48.367Z,0.00
2019-04-07T01:59:48.809Z,0.00
2019-04-07T02:00:50.426Z,0.00
2019-04-07T02:01:51.693Z,0.00
2019-04-07T02:02:53.311Z,0.00
2019-04-07T02:03:53.730Z,0.00
2019-04-07T02:04:54.386Z,0.00
2019-04-07T02:05:59.249Z,0.00
2019-04-07T02:07:01.836Z,0.00
2019-04-07T02:08:02.358Z,0.00
2019-04-07T02:09:03.021Z,0.00
2019-04-07T02:10:03.453Z,0.00
2019-04-07T02:11:04.022Z,0.00
2019-04-07T02:12:04.783Z,0.00
2019-04-07T02:13:05.947Z,0.00
2019-04-07T02:14:07.074Z,0.00
2019-04-07T02:15:09.778Z,0.00
2019-04-07T02:16:10.344Z,0.00
2019-04-07T02:17:10.921Z,0.00
2019-04-07T02:18:11.412Z,0.00
2019-04-07T02:19:12.011Z,0.00
2019-04-07T02:20:12.570Z,0.00
2019-04-07T02:21:15.145Z,0.00
2019-04-07T02:22:15.858Z,0.00
2019-04-07T02:23:16.489Z,0.00
2019-04-07T02:24:16.947Z,0.00
2019-04-07T02:25:18.563Z,0.00
2019-04-07T02:26:19.069Z,0.00
2019-04-07T02:27:19.691Z,0.00
2019-04-07T02:28:20.397Z,0.00
2019-04-07T02:29:21.224Z,0.00
2019-04-07T02:30:22.320Z,0.00
2019-04-07T02:31:23.506Z,0.00
2019-04-07T02:32:24.642Z,0.00
2019-04-07T02:33:25.373Z,0.00
2019-04-07T02:34:25.931Z,0.00
2019-04-07T02:35:26.512Z,0.00
2019-04-07T02:36:30.790Z,0.00
2019-04-07T02:37:33.484Z,0.00
2019-04-07T02:38:34.562Z,0.00
2019-04-07T02:39:35.184Z,0.00
2019-04-07T02:40:35.629Z,0.00
2019-04-07T02:41:36.181Z,0.00
2019-04-07T02:42:36.658Z,0.00
2019-04-07T02:50:35.259Z,0.00
2019-04-07T02:51:43.539Z,0.00
2019-04-07T02:52:44.040Z,0.00
2019-04-07T02:53:44.468Z,0.00
2019-04-07T02:54:44.935Z,0.00
2019-04-07T02:56:00.370Z,0.00
2019-04-07T02:57:01.206Z,0.00
2019-04-07T03:02:25.011Z,0.00
2019-04-07T03:03:34.434Z,0.00
2019-04-07T03:04:34.885Z,0.00
2019-04-07T03:05:56.572Z,0.00
2019-04-07T03:06:57.053Z,0.00
2019-04-07T03:07:59.490Z,0.00
2019-04-07T03:09:00.018Z,0.00
2019-04-07T03:10:04.428Z,0.00
2019-04-07T03:11:05.595Z,0.00
2019-04-07T03:12:23.483Z,0.00
2019-04-07T03:13:24.457Z,0.00
2019-04-07T03:14:54.312Z,0.00
2019-04-07T03:15:54.806Z,0.00
2019-04-07T03:16:55.834Z,0.00
2019-04-07T03:17:57.284Z,0.00
2019-04-07T03:19:15.164Z,0.00
2019-04-07T03:20:16.735Z,0.00
2019-04-07T03:21:17.481Z,0.00
2019-04-07T03:22:18.276Z,0.00
2019-04-07T03:23:20.866Z,0.00
2019-04-07T03:24:42.405Z,0.00
2019-04-07T03:25:42.846Z,0.00
2019-04-07T03:26:43.289Z,0.00
2019-04-07T03:27:51.561Z,0.00
2019-04-07T03:28:52.601Z,0.00
2019-04-07T03:29:57.415Z,0.00
2019-04-07T03:30:59.223Z,0.00
2019-04-07T03:32:02.861Z,0.00
2019-04-07T03:34:20.731Z,0.00
2019-04-07T03:35:25.934Z,0.00
2019-04-07T03:36:32.247Z,0.00
2019-04-07T03:37:49.062Z,0.00
2019-04-07T03:38:50.327Z,0.00
2019-04-07T03:39:51.281Z,0.00
2019-04-07T03:40:51.915Z,0.00
2019-04-07T03:41:55.478Z,0.00
2019-04-07T03:42:55.975Z,0.00
2019-04-07T03:43:59.247Z,0.00
2019-04-07T03:45:00.679Z,0.00
2019-04-07T03:46:16.180Z,0.00
2019-04-07T03:47:16.617Z,0.00
2019-04-07T03:48:53.655Z,0.00
2019-04-07T03:49:55.027Z,0.00
2019-04-07T03:51:04.368Z,0.00
2019-04-07T03:52:05.722Z,0.00
2019-04-07T03:53:13.393Z,0.00
2019-04-07T03:54:14.216Z,0.00
2019-04-07T03:55:49.457Z,0.00
2019-04-07T03:56:49.951Z,0.00
2019-04-07T03:58:00.002Z,0.00
2019-04-07T03:59:00.585Z,0.00
2019-04-07T04:00:02.267Z,0.00
2019-04-07T04:01:03.570Z,0.00
2019-04-07T04:02:21.630Z,0.00
2019-04-07T04:03:22.788Z,0.00
2019-04-07T04:04:46.477Z,0.00
2019-04-07T04:05:48.164Z,0.00
2019-04-07T04:07:20.336Z,0.00
2019-04-07T04:08:11.699Z,0.00
2019-04-07T04:09:26.755Z,0.00
2019-04-07T04:10:27.225Z,0.00
2019-04-07T04:11:29.695Z,0.00
2019-04-07T04:12:30.216Z,0.00
2019-04-07T04:18:12.074Z,0.00
2019-04-07T04:19:13.020Z,0.00
2019-04-07T04:20:14.750Z,0.00
2019-04-07T04:21:15.391Z,0.00
2019-04-07T04:22:16.973Z,0.00
2019-04-07T04:23:17.839Z,0.00
2019-04-07T04:24:18.655Z,0.00
2019-04-07T04:25:21.140Z,0.00
2019-04-07T04:26:23.723Z,0.00
2019-04-07T04:27:24.252Z,0.00
2019-04-07T04:28:32.861Z,0.00
2019-04-07T04:29:34.973Z,0.00
2019-04-07T04:30:36.026Z,0.00
2019-04-07T04:31:37.077Z,0.00
2019-04-07T04:32:37.605Z,0.00
2019-04-07T04:33:38.036Z,0.00
2019-04-07T04:34:38.978Z,0.00
2019-04-07T04:35:39.506Z,0.00
2019-04-07T04:36:40.470Z,0.00
2019-04-07T04:37:46.622Z,0.00
2019-04-07T04:38:48.049Z,0.00
2019-04-07T04:39:48.532Z,0.00
2019-04-07T04:40:49.377Z,0.00
2019-04-07T04:41:50.763Z,0.00
2019-04-07T04:42:51.958Z,0.00
2019-04-07T04:43:53.438Z,0.00
2019-04-07T04:44:54.341Z,0.00
2019-04-07T04:45:54.842Z,0.00
2019-04-07T04:46:56.118Z,0.00
2019-04-07T04:47:56.704Z,0.00
2019-04-07T04:48:57.129Z,0.00
2019-04-07T04:49:57.817Z,0.00
2019-04-07T04:50:58.319Z,0.00
2019-04-07T04:51:58.798Z,0.00
2019-04-07T04:52:59.864Z,0.00
2019-04-07T04:54:00.527Z,0.00
2019-04-07T04:55:02.009Z,0.00
2019-04-07T04:56:02.997Z,0.00
2019-04-07T04:57:06.430Z,0.00
2019-04-07T04:58:08.763Z,5.62
2019-04-07T04:59:10.100Z,5.62
2019-04-07T05:00:10.538Z,5.62
2019-04-07T05:01:11.852Z,5.62
2019-04-07T05:02:12.319Z,5.62
2019-04-07T05:03:12.783Z,5.62
2019-04-07T05:04:13.224Z,5.62
2019-04-07T05:05:13.698Z,5.62
2019-04-07T05:06:14.431Z,5.62
2019-04-07T05:07:15.653Z,5.62
2019-04-07T05:08:16.251Z,5.62
2019-04-07T05:09:16.688Z,5.62
2019-04-07T05:10:17.159Z,11.25
2019-04-07T05:11:17.770Z,11.25
2019-04-07T05:12:18.184Z,11.25
2019-04-07T05:13:19.034Z,11.25
2019-04-07T05:14:20.101Z,11.25
2019-04-07T05:15:21.021Z,11.25
2019-04-07T05:16:21.507Z,11.25
2019-04-07T05:17:21.979Z,11.25
2019-04-07T05:18:22.409Z,11.25
2019-04-07T05:19:22.830Z,16.88
2019-04-07T05:20:23.945Z,16.88
2019-04-07T05:21:25.038Z,16.88
2019-04-07T05:22:25.737Z,16.88
2019-04-07T05:23:26.165Z,16.88
2019-04-07T05:24:27.743Z,16.88
2019-04-07T05:25:28.386Z,16.88
2019-04-07T05:26:29.120Z,16.88
2019-04-07T05:27:30.115Z,22.50
2019-04-07T05:28:33.242Z,22.50
2019-04-07T05:29:37.226Z,22.50
2019-04-07T05:30:38.018Z,22.50
2019-04-07T05:31:38.715Z,22.50
2019-04-07T05:32:39.942Z,22.50
2019-04-07T05:33:41.101Z,22.50
2019-04-07T05:34:43.660Z,22.50
2019-04-07T05:35:44.227Z,22.50
2019-04-07T05:36:44.801Z,28.12
2019-04-07T05:37:45.897Z,28.12
2019-04-07T05:38:46.719Z,28.12
2019-04-07T05:39:47.213Z,28.12
2019-04-07T05:40:48.812Z,28.12
2019-04-07T05:41:49.252Z,28.12
2019-04-07T05:42:49.814Z,28.12
2019-04-07T05:43:50.295Z,28.12
2019-04-07T05:44:51.707Z,33.75
2019-04-07T05:45:52.162Z,33.75
2019-04-07T05:46:52.805Z,33.75
2019-04-07T05:47:53.489Z,33.75
2019-04-07T05:48:54.127Z,33.75
2019-04-07T05:49:57.488Z,33.75
2019-04-07T05:51:00.801Z,33.75
2019-04-07T05:52:04.629Z,33.75
2019-04-07T05:53:06.815Z,33.75
2019-04-07T05:54:12.447Z,39.38
2019-04-07T05:55:12.930Z,39.38
2019-04-07T05:56:13.367Z,39.38
2019-04-07T05:57:13.781Z,39.38
2019-04-07T05:58:15.715Z,39.38
2019-04-07T05:59:16.281Z,39.38
2019-04-07T06:00:17.043Z,39.38
2019-04-07T06:01:21.746Z,45.00
2019-04-07T06:02:24.467Z,45.00
2019-04-07T06:03:25.394Z,45.00
2019-04-07T06:04:27.110Z,45.00
2019-04-07T06:05:28.117Z,45.00
2019-04-07T06:06:45.299Z,45.00
2019-04-07T06:07:45.970Z,45.00
2019-04-07T06:10:59.968Z,45.00
2019-04-07T06:14:19.310Z,50.62
2019-04-07T06:15:22.227Z,50.62
2019-04-07T06:16:24.696Z,50.62
2019-04-07T06:17:26.390Z,50.62
2019-04-07T06:18:50.178Z,50.62
2019-04-07T06:19:51.687Z,50.62
2019-04-07T06:25:16.776Z,56.25
2019-04-07T06:26:17.553Z,56.25
2019-04-07T06:27:18.730Z,56.25
2019-04-07T06:28:21.262Z,56.25
2019-04-07T06:29:24.716Z,56.25
2019-04-07T06:30:30.012Z,56.25
2019-04-07T06:31:41.431Z,56.25
2019-04-07T06:33:05.531Z,61.88
2019-04-07T06:34:10.065Z,61.88
2019-04-07T06:35:13.316Z,61.88
2019-04-07T06:38:31.797Z,61.88
2019-04-07T06:39:32.038Z,67.50
2019-04-07T06:40:50.812Z,67.50
2019-04-07T06:41:58.953Z,67.50
2019-04-07T06:46:30.546Z,73.12
2019-04-07T06:47:33.383Z,73.12
2019-04-07T06:48:33.939Z,78.75
2019-04-07T06:49:35.434Z,78.75
2019-04-07T06:50:47.580Z,78.75
2019-04-07T06:51:42.443Z,84.38
2019-04-07T06:52:42.885Z,84.38
2019-04-07T06:53:51.453Z,84.38
2019-04-07T06:54:54.973Z,90.00
2019-04-07T06:56:02.052Z,90.00
2019-04-07T06:57:06.050Z,90.00
2019-04-07T06:58:08.378Z,95.62
2019-04-07T06:59:12.929Z,95.62
2019-04-07T07:00:32.139Z,95.62
2019-04-07T07:01:32.579Z,95.62
2019-04-07T07:02:35.769Z,95.62
2019-04-07T07:03:38.844Z,101.25
2019-04-07T07:06:53.627Z,106.88
2019-04-07T07:07:55.120Z,112.50
2019-04-07T07:09:16.665Z,112.50
2019-04-07T07:10:25.918Z,118.12
2019-04-07T07:11:28.861Z,118.12
2019-04-07T07:12:50.962Z,123.75
2019-04-07T07:13:52.011Z,123.75
2019-04-07T07:15:14.443Z,129.38
2019-04-07T07:16:16.944Z,129.38
2019-04-07T07:19:31.802Z,140.62
2019-04-07T07:20:32.766Z,140.62
2019-04-07T07:21:36.457Z,146.25
2019-04-07T07:22:41.496Z,146.25
2019-04-07T07:23:47.651Z,146.25
2019-04-07T07:24:49.091Z,146.25
2019-04-07T07:25:50.535Z,146.25
2019-04-07T07:26:51.032Z,151.88
2019-04-07T07:27:52.131Z,151.88
2019-04-07T07:28:53.060Z,157.50
2019-04-07T07:29:54.689Z,157.50
2019-04-07T07:30:55.789Z,157.50
2019-04-07T07:32:02.539Z,157.50
2019-04-07T07:33:07.443Z,163.12
2019-04-07T07:34:11.863Z,163.12
2019-04-07T07:35:14.463Z,163.12
2019-04-07T07:36:18.360Z,163.12
2019-04-07T07:37:22.961Z,168.75
2019-04-07T07:38:29.753Z,168.75
2019-04-07T07:39:30.662Z,168.75
2019-04-07T07:40:33.811Z,168.75
2019-04-07T07:41:35.646Z,168.75
2019-04-07T07:42:36.584Z,168.75
2019-04-07T07:43:37.153Z,168.75
2019-04-07T07:44:39.591Z,168.75
2019-04-07T07:45:42.884Z,168.75
2019-04-07T07:46:49.121Z,174.38
2019-04-07T07:47:53.240Z,174.38
2019-04-07T07:48:58.827Z,174.38
2019-04-07T07:50:04.882Z,174.38
2019-04-07T07:51:07.261Z,174.38
2019-04-07T07:52:10.406Z,174.38
2019-04-07T07:53:11.435Z,168.75
2019-04-07T07:54:14.178Z,180.00
2019-04-07T07:55:15.502Z,185.62
2019-04-07T07:56:16.096Z,185.62
2019-04-07T07:57:20.980Z,185.62
2019-04-07T07:58:23.586Z,185.62
2019-04-07T07:59:24.165Z,191.25
2019-04-07T08:05:21.708Z,196.88
2019-04-07T08:06:22.150Z,196.88
2019-04-07T08:15:36.090Z,208.12
2019-04-07T08:16:37.299Z,208.12
2019-04-07T08:17:38.071Z,208.12
2019-04-07T08:18:41.937Z,208.12
2019-04-07T08:21:54.699Z,208.12
2019-04-07T08:23:16.255Z,208.12
2019-04-07T08:24:18.599Z,208.12
2019-04-07T08:25:48.925Z,213.75
2019-04-07T08:26:50.319Z,213.75
2019-04-07T08:27:51.000Z,213.75
2019-04-07T08:28:51.449Z,213.75
2019-04-07T08:32:04.223Z,219.38
2019-04-07T08:33:07.262Z,219.38
2019-04-07T08:34:07.847Z,219.38
2019-04-07T08:35:08.458Z,225.00
2019-04-07T08:36:11.178Z,225.00
2019-04-07T08:37:45.805Z,219.38
2019-04-07T08:38:46.751Z,225.00
2019-04-07T08:39:47.549Z,225.00
2019-04-07T08:40:48.060Z,225.00
2019-04-07T08:41:49.434Z,225.00
2019-04-07T08:42:50.780Z,225.00
2019-04-07T08:43:55.177Z,230.62
2019-04-07T08:45:00.342Z,230.62
2019-04-07T08:46:04.370Z,230.62
2019-04-07T08:47:23.531Z,230.62
2019-04-07T08:48:24.003Z,230.62
2019-04-07T08:50:00.468Z,236.25
2019-04-07T08:51:01.121Z,236.25
2019-04-07T08:52:07.983Z,236.25
2019-04-07T08:53:12.219Z,236.25
2019-04-07T08:54:30.621Z,236.25
2019-04-07T08:55:31.084Z,241.88
2019-04-07T08:56:31.567Z,236.25
2019-04-07T08:57:32.424Z,236.25
2019-04-07T09:01:54.247Z,241.88
2019-04-07T09:03:23.493Z,241.88
2019-04-07T09:04:24.182Z,241.88
2019-04-07T09:05:47.871Z,241.88
2019-04-07T09:06:48.851Z,247.50
2019-04-07T09:10:54.906Z,247.50
2019-04-07T09:12:11.833Z,247.50
2019-04-07T09:13:13.059Z,253.12
2019-04-07T09:14:37.846Z,253.12
2019-04-07T09:15:43.631Z,253.12
2019-04-07T09:16:56.206Z,253.12
2019-04-07T09:17:58.928Z,253.12
2019-04-07T09:22:53.805Z,258.75
2019-04-07T09:23:56.457Z,258.75
2019-04-07T09:25:03.449Z,258.75
2019-04-07T09:26:05.631Z,258.75
2019-04-07T09:27:07.892Z,258.75
2019-04-07T09:28:08.724Z,258.75
2019-04-07T09:29:09.354Z,258.75
2019-04-07T09:30:10.395Z,264.38
2019-04-07T09:31:18.638Z,264.38
2019-04-07T09:32:19.197Z,270.00
2019-04-07T09:33:36.553Z,264.38
2019-04-07T09:34:38.101Z,270.00
2019-04-07T09:36:01.676Z,270.00
2019-04-07T09:37:02.330Z,270.00
2019-04-07T09:42:02.035Z,275.62
2019-04-07T09:43:03.131Z,275.62
2019-04-07T09:44:40.220Z,275.62
2019-04-07T09:45:41.221Z,275.62
2019-04-07T09:46:55.023Z,281.25
2019-04-07T09:47:55.444Z,281.25
2019-04-07T09:49:22.207Z,292.50
2019-04-07T09:50:26.878Z,388.12
2019-04-07T09:51:57.479Z,455.62
2019-04-07T09:52:57.972Z,495.00
2019-04-07T09:53:58.773Z,489.38
2019-04-07T09:54:59.260Z,506.25
2019-04-07T09:58:25.355Z,354.38
2019-04-07T09:59:42.944Z,298.12
2019-04-07T10:00:43.385Z,298.12
2019-04-07T10:02:14.541Z,298.12
2019-04-07T10:03:16.279Z,579.38
2019-04-07T10:04:44.675Z,551.25
2019-04-07T10:05:45.115Z,495.00
2019-04-07T10:17:27.767Z,309.38
2019-04-07T10:24:52.405Z,315.00
2019-04-07T10:25:52.885Z,315.00
2019-04-07T10:26:53.660Z,320.62
2019-04-07T10:28:15.225Z,320.62
2019-04-07T10:29:33.081Z,320.62
2019-04-07T10:30:33.552Z,320.62
2019-04-07T10:31:33.975Z,326.25
2019-04-07T10:32:34.413Z,326.25
2019-04-07T10:33:49.530Z,326.25
2019-04-07T10:34:50.944Z,326.25
2019-04-07T10:35:59.096Z,326.25
2019-04-07T10:37:02.655Z,331.88
2019-04-07T10:38:19.046Z,331.88
2019-04-07T10:39:19.862Z,331.88
2019-04-07T10:40:23.049Z,331.88
2019-04-07T10:41:23.770Z,331.88
2019-04-07T10:42:29.724Z,337.50
2019-04-07T10:43:30.311Z,337.50
2019-04-07T10:44:52.157Z,337.50
2019-04-07T10:45:52.600Z,337.50
2019-04-07T10:46:53.855Z,343.12
2019-04-07T10:47:55.118Z,343.12
2019-04-07T10:48:55.824Z,337.50
2019-04-07T10:50:00.669Z,343.12
2019-04-07T10:51:17.818Z,348.75
2019-04-07T10:52:19.666Z,343.12
2019-04-07T10:53:20.654Z,348.75
2019-04-07T10:54:21.255Z,354.38
2019-04-07T10:56:38.677Z,354.38
2019-04-07T10:57:39.233Z,348.75
2019-04-07T10:58:40.279Z,348.75
2019-04-07T10:59:40.925Z,360.00
2019-04-07T11:00:45.366Z,354.38
2019-04-07T11:01:47.799Z,354.38
2019-04-07T11:02:48.251Z,360.00
2019-04-07T11:03:53.694Z,354.38
2019-04-07T11:04:55.274Z,354.38
2019-04-07T11:05:57.145Z,360.00
2019-04-07T11:06:57.619Z,360.00
2019-04-07T11:07:58.741Z,360.00
2019-04-07T11:08:59.213Z,365.62
2019-04-07T11:10:00.097Z,365.62
2019-04-07T11:11:01.296Z,360.00
2019-04-07T11:12:09.856Z,365.62
2019-04-07T11:13:12.500Z,365.62
2019-04-07T11:14:15.121Z,365.62
2019-04-07T11:15:15.805Z,365.62
2019-04-07T11:16:23.121Z,371.25
2019-04-07T11:17:23.564Z,371.25
2019-04-07T11:18:31.634Z,371.25
2019-04-07T11:19:32.282Z,376.88
2019-04-07T11:20:33.966Z,371.25
2019-04-07T11:21:34.968Z,376.88
2019-04-07T11:22:40.183Z,376.88
2019-04-07T11:23:41.371Z,376.88
2019-04-07T11:24:41.918Z,371.25
2019-04-07T11:25:42.830Z,376.88
2019-04-07T11:26:43.363Z,376.88
2019-04-07T11:27:44.042Z,382.50
2019-04-07T11:28:45.642Z,382.50
2019-04-07T11:29:46.069Z,382.50
2019-04-07T11:30:47.591Z,388.12
2019-04-07T11:31:48.474Z,388.12
2019-04-07T11:32:57.672Z,388.12
2019-04-07T11:33:58.854Z,388.12
2019-04-07T11:35:00.424Z,388.12
2019-04-07T11:36:00.855Z,393.75
2019-04-07T11:37:01.757Z,399.38
2019-04-07T11:38:03.341Z,393.75
2019-04-07T11:39:03.921Z,393.75
2019-04-07T11:40:12.807Z,399.38
2019-04-07T11:41:13.251Z,399.38
2019-04-07T11:42:16.255Z,399.38
2019-04-07T11:43:17.425Z,399.38
2019-04-07T11:44:20.326Z,405.00
2019-04-07T11:45:20.850Z,410.62
2019-04-07T11:46:30.563Z,416.25
2019-04-07T11:47:31.617Z,410.62
2019-04-07T11:48:33.143Z,405.00
2019-04-07T11:49:34.492Z,410.62
2019-04-07T11:50:41.712Z,410.62
2019-04-07T11:51:42.471Z,410.62
2019-04-07T11:52:45.018Z,410.62
2019-04-07T11:53:45.948Z,427.50
2019-04-07T11:54:53.791Z,438.75
2019-04-07T11:55:54.262Z,444.38
2019-04-07T11:57:01.593Z,444.38
2019-04-07T11:58:12.215Z,444.38
2019-04-07T11:59:09.217Z,438.75
2019-04-07T12:00:10.614Z,438.75
2019-04-07T12:01:14.424Z,433.12
2019-04-07T12:02:18.522Z,433.12
2019-04-07T12:03:24.695Z,444.38
2019-04-07T12:04:27.902Z,444.38
2019-04-07T12:05:29.405Z,450.00
2019-04-07T12:06:30.018Z,472.50
2019-04-07T12:07:30.598Z,489.38
2019-04-07T12:08:35.166Z,495.00
2019-04-07T12:09:37.521Z,320.62
2019-04-07T12:10:38.812Z,410.62
2019-04-07T12:11:40.404Z,1704.38
2019-04-07T12:12:41.955Z,1755.00
2019-04-07T12:13:44.620Z,1777.50
2019-04-07T12:14:48.443Z,1788.75
2019-04-07T12:15:55.274Z,1878.75
2019-04-07T12:16:58.422Z,1850.62
2019-04-07T12:18:00.753Z,1856.25
2019-04-07T12:19:01.183Z,1828.12
2019-04-07T12:20:03.089Z,1794.38
2019-04-07T12:21:05.325Z,1856.25
2019-04-07T12:22:12.681Z,1597.50
2019-04-07T12:23:20.997Z,720.00
2019-04-07T12:24:25.797Z,416.25
2019-04-07T12:25:29.344Z,371.25
2019-04-07T12:26:38.003Z,1783.12
2019-04-07T12:27:43.021Z,1783.12
2019-04-07T12:28:47.644Z,1783.12
2019-04-07T12:29:51.594Z,1732.50
2019-04-07T12:30:52.845Z,1743.75
2019-04-07T12:31:53.527Z,1704.38
2019-04-07T12:32:55.264Z,1710.00
2019-04-07T12:33:55.712Z,416.25
2019-04-07T12:34:56.654Z,1670.62
2019-04-07T12:35:57.579Z,1575.00
2019-04-07T12:37:02.389Z,461.25
2019-04-07T12:38:05.246Z,1760.62
2019-04-07T12:39:05.891Z,1901.25
2019-04-07T12:40:06.488Z,1923.75
2019-04-07T12:41:15.115Z,410.62
2019-04-07T12:42:13.551Z,416.25
2019-04-07T12:43:14.227Z,1912.50
2019-04-07T12:44:14.679Z,1805.62
2019-04-07T12:45:15.242Z,1665.00
2019-04-07T12:46:16.542Z,1608.75
2019-04-07T12:47:18.103Z,1845.00
2019-04-07T12:48:19.497Z,1766.25
2019-04-07T12:49:20.678Z,562.50
2019-04-07T12:50:21.926Z,1698.75
2019-04-07T12:51:22.732Z,1822.50
2019-04-07T12:52:28.097Z,1873.12
2019-04-07T12:53:34.312Z,1710.00
2019-04-07T12:54:40.943Z,1788.75
2019-04-07T12:55:46.941Z,1755.00
2019-04-07T12:56:50.339Z,1710.00
2019-04-07T12:57:50.786Z,1721.25
2019-04-07T12:58:51.662Z,1777.50
2019-04-07T12:59:52.777Z,1822.50
2019-04-07T13:00:59.282Z,1102.50
2019-04-07T13:02:04.536Z,1856.25
2019-04-07T13:03:07.138Z,1861.88
2019-04-07T13:04:07.603Z,1816.88
2019-04-07T13:05:08.683Z,1833.75
2019-04-07T13:06:09.470Z,1811.25
2019-04-07T13:07:15.269Z,1057.50
2019-04-07T13:08:19.931Z,416.25
2019-04-07T13:09:32.426Z,433.12
2019-04-07T13:10:34.346Z,1501.88
2019-04-07T13:11:39.496Z,776.25
2019-04-07T13:12:42.282Z,1642.50
2019-04-07T13:13:43.072Z,1406.25
2019-04-07T13:14:44.296Z,1839.38
2019-04-07T13:15:48.259Z,1490.62
2019-04-07T13:16:50.375Z,1811.25
2019-04-07T13:17:51.593Z,1816.88
2019-04-07T13:18:52.058Z,1760.62
2019-04-07T13:19:53.361Z,1676.25
2019-04-07T13:20:54.687Z,1698.75
2019-04-07T13:21:57.279Z,416.25
2019-04-07T13:23:00.346Z,461.25
2019-04-07T13:24:03.597Z,1828.12
2019-04-07T13:25:07.911Z,1822.50
2019-04-07T13:26:08.790Z,1794.38
2019-04-07T13:27:09.217Z,1794.38
2019-04-07T13:28:10.851Z,1783.12
2019-04-07T13:29:11.823Z,1704.38
2019-04-07T13:30:13.834Z,1698.75
2019-04-07T13:31:14.570Z,1760.62
2019-04-07T13:32:15.264Z,1771.88
2019-04-07T13:33:16.441Z,1760.62
2019-04-07T13:34:18.399Z,1732.50
2019-04-07T13:35:18.967Z,1642.50
2019-04-07T13:36:19.579Z,652.50
2019-04-07T13:37:20.702Z,472.50
2019-04-07T13:38:22.304Z,1445.62
2019-04-07T13:39:22.729Z,1428.75
2019-04-07T13:40:24.112Z,1029.38
2019-04-07T13:41:36.625Z,1068.75
2019-04-07T13:42:31.017Z,298.12
2019-04-07T13:43:33.747Z,270.00
2019-04-07T13:44:38.832Z,258.75
2019-04-07T13:45:44.307Z,270.00
2019-04-07T13:46:46.897Z,275.62
2019-04-07T13:47:48.084Z,388.12
2019-04-07T13:48:52.164Z,376.88
2019-04-07T13:49:57.398Z,371.25
2019-04-07T13:51:00.038Z,354.38
2019-04-07T13:52:00.664Z,410.62
2019-04-07T13:53:02.356Z,354.38
2019-04-07T13:54:03.327Z,562.50
2019-04-07T13:55:05.580Z,1254.38
2019-04-07T13:56:15.505Z,1243.12
2019-04-07T13:57:22.207Z,607.50
2019-04-07T13:58:25.033Z,286.88
2019-04-07T13:59:25.468Z,303.75
2019-04-07T14:00:26.331Z,444.38
2019-04-07T14:01:26.825Z,877.50
2019-04-07T14:02:30.213Z,534.38
2019-04-07T14:03:33.769Z,1513.12
2019-04-07T14:04:34.595Z,1473.75
2019-04-07T14:05:38.852Z,1366.88
2019-04-07T14:06:43.617Z,315.00
2019-04-07T14:07:51.586Z,264.38
2019-04-07T14:08:57.178Z,253.12
2019-04-07T14:10:03.773Z,247.50
2019-04-07T14:11:08.407Z,236.25
2019-04-07T14:12:12.817Z,253.12
2019-04-07T14:13:14.883Z,298.12
2019-04-07T14:14:15.731Z,331.88
2019-04-07T14:15:16.899Z,382.50
2019-04-07T14:16:17.374Z,888.75
2019-04-07T14:17:19.665Z,354.38
2019-04-07T14:18:20.206Z,1215.00
2019-04-07T14:19:23.124Z,1434.38
2019-04-07T14:20:24.474Z,1333.12
2019-04-07T14:21:25.220Z,421.88
2019-04-07T14:22:25.693Z,1113.75
2019-04-07T14:23:26.304Z,393.75
2019-04-07T14:24:27.179Z,1350.00
2019-04-07T14:25:34.673Z,1299.38
2019-04-07T14:26:35.641Z,1108.12
2019-04-07T14:27:43.694Z,315.00
2019-04-07T14:28:44.224Z,573.75
2019-04-07T14:29:46.007Z,1237.50
2019-04-07T14:30:46.436Z,1316.25
2019-04-07T14:31:53.657Z,1316.25
2019-04-07T14:32:54.625Z,1299.38
2019-04-07T14:33:57.357Z,1248.75
2019-04-07T14:34:58.031Z,1254.38
2019-04-07T14:35:58.601Z,1248.75
2019-04-07T14:36:59.057Z,1282.50
2019-04-07T14:38:01.619Z,1288.12
2019-04-07T14:39:02.140Z,1260.00
2019-04-07T14:40:03.663Z,1153.12
2019-04-07T14:41:06.456Z,1046.25
2019-04-07T14:42:08.808Z,1040.62
2019-04-07T14:43:10.254Z,961.88
2019-04-07T14:44:10.690Z,618.75
2019-04-07T14:45:12.070Z,326.25
2019-04-07T14:46:12.566Z,303.75
2019-04-07T14:47:14.003Z,286.88
2019-04-07T14:48:14.553Z,286.88
2019-04-07T14:49:16.144Z,281.25
2019-04-07T14:50:16.563Z,281.25
2019-04-07T14:51:24.099Z,281.25
2019-04-07T14:52:25.235Z,281.25
2019-04-07T14:53:26.501Z,286.88
2019-04-07T14:54:27.111Z,292.50
2019-04-07T14:55:31.154Z,292.50
2019-04-07T14:56:34.193Z,298.12